Time;durP1;ratioP1;P1;durP2;ratioP2;P2;SDS_P1;SDS_P2;PMS_P1;PMS_P2;Temp;Humidity;BMP_temperature;BMP_pressure;BME280_temperature;BME280_humidity;BME280_pressure;Samples;Min_cycle;Max_cycle;Signal;HPM_P1;HPM_P2
2023/10/01 00:01:41;;;;;;;1999.90;999.90;;;10.30;99.90;;;;;;5097803;28;20476;-73
2023/10/01 00:04:07;;;;;;;1999.90;999.90;;;10.30;99.90;;;;;;5097739;28;20040;-73
2023/10/01 00:06:36;;;;;;;1999.90;999.90;;;10.30;99.90;;;;;;5096009;28;20039;-73
2023/10/01 00:09:05;;;;;;;1999.90;999.90;;;10.30;99.90;;;;;;5097626;28;20473;-73
2023/10/01 00:11:41;;;;;;;1999.90;999.90;;;10.40;99.90;;;;;;5097519;28;20047;-73
2023/10/01 00:14:08;;;;;;;1999.90;999.90;;;10.30;99.90;;;;;;5096077;28;20025;-73
2023/10/01 00:16:37;;;;;;;1999.90;999.90;;;10.20;99.90;;;;;;5095814;28;20107;-75
2023/10/01 00:19:03;;;;;;;1999.90;999.90;;;10.30;99.90;;;;;;5095457;28;20090;-73
2023/10/01 00:21:29;;;;;;;1999.90;999.90;;;10.30;99.90;;;;;;5097553;28;20127;-73
2023/10/01 00:23:55;;;;;;;1999.90;999.90;;;10.30;99.90;;;;;;5095983;28;20114;-74
2023/10/01 00:26:21;;;;;;;1999.90;999.90;;;10.30;99.90;;;;;;5097221;28;20043;-74
2023/10/01 00:28:47;;;;;;;1999.90;999.90;;;10.20;99.90;;;;;;5097183;28;20025;-73
2023/10/01 00:31:13;;;;;;;1999.90;999.90;;;10.20;99.90;;;;;;5095731;28;20044;-73
2023/10/01 00:33:39;;;;;;;1999.90;999.90;;;10.10;99.90;;;;;;5097390;28;20025;-75
2023/10/01 00:36:05;;;;;;;1999.90;999.90;;;10.10;99.90;;;;;;5097171;28;20036;-73
2023/10/01 00:38:31;;;;;;;1999.90;999.90;;;10.00;99.90;;;;;;5097113;28;20036;-73
2023/10/01 00:40:57;;;;;;;1999.90;999.90;;;10.00;99.90;;;;;;5095770;28;20055;-73
2023/10/01 00:43:29;;;;;;;1999.90;999.90;;;10.00;99.90;;;;;;5097270;28;20028;-73
2023/10/01 00:45:56;;;;;;;1999.90;999.90;;;10.00;99.90;;;;;;5096762;28;20446;-73
2023/10/01 00:48:22;;;;;;;1999.90;999.90;;;9.90;99.90;;;;;;5096889;28;20024;-73
2023/10/01 00:50:49;;;;;;;1999.90;999.90;;;9.90;99.90;;;;;;5097016;28;20580;-75
2023/10/01 00:53:15;;;;;;;1999.90;999.90;;;9.90;99.90;;;;;;5097113;28;20413;-73
2023/10/01 00:55:41;;;;;;;1999.90;999.90;;;9.90;99.90;;;;;;5096890;28;20082;-73
2023/10/01 00:58:09;;;;;;;1999.90;999.90;;;9.90;99.90;;;;;;5096844;28;20025;-74
2023/10/01 01:00:36;;;;;;;1999.90;999.90;;;9.80;99.90;;;;;;5096717;28;20028;-75
2023/10/01 01:05:41;;;;;;;1999.90;999.90;;;9.90;99.90;;;;;;5096869;28;20075;-73
2023/10/01 01:08:21;;;;;;;1999.90;999.90;;;9.90;99.90;;;;;;5096938;28;20021;-73
2023/10/01 01:10:48;;;;;;;1999.90;999.90;;;9.80;99.90;;;;;;5094338;28;20041;-73
2023/10/01 01:13:16;;;;;;;1999.90;999.90;;;9.80;99.90;;;;;;5096709;28;20060;-73
2023/10/01 01:15:45;;;;;;;1999.90;999.90;;;9.80;99.90;;;;;;5094952;28;20085;-73
2023/10/01 01:18:13;;;;;;;1999.90;999.90;;;9.80;99.90;;;;;;5095239;28;20036;-73
2023/10/01 01:20:45;;;;;;;1999.90;999.90;;;9.80;99.90;;;;;;5096570;28;20033;-73
2023/10/01 01:23:18;;;;;;;1999.90;999.90;;;9.80;99.90;;;;;;5096718;28;20025;-74
2023/10/01 01:25:52;;;;;;;1999.90;999.90;;;9.70;99.90;;;;;;5096393;28;20465;-73
2023/10/01 01:28:24;;;;;;;1999.90;999.90;;;9.60;99.90;;;;;;5094982;28;20481;-73
2023/10/01 01:30:55;;;;;;;1999.90;999.90;;;9.60;99.90;;;;;;5096500;28;20036;-73
2023/10/01 01:33:21;;;;;;;1999.90;999.90;;;9.60;99.90;;;;;;5096407;28;20064;-73
2023/10/01 01:35:50;;;;;;;1999.90;999.90;;;9.60;99.90;;;;;;5096132;28;20056;-73
2023/10/01 01:38:16;;;;;;;1999.90;999.90;;;9.60;99.90;;;;;;5096041;28;20052;-73
2023/10/01 01:40:42;;;;;;;1999.90;999.90;;;9.50;99.90;;;;;;5096423;28;20430;-74
2023/10/01 01:43:23;;;;;;;1999.90;999.90;;;9.40;99.90;;;;;;5094418;28;20032;-72
2023/10/01 01:46:00;;;;;;;1999.90;999.90;;;9.40;99.90;;;;;;5094283;28;20074;-73
2023/10/01 01:48:30;;;;;;;1999.90;999.90;;;9.50;99.90;;;;;;5096084;28;20031;-73
2023/10/01 01:51:00;;;;;;;1999.90;999.90;;;9.50;99.90;;;;;;5095918;28;20460;-73
2023/10/01 01:53:27;;;;;;;1999.90;999.90;;;9.50;99.90;;;;;;5094485;28;20032;-72
2023/10/01 01:55:56;;;;;;;1999.90;999.90;;;9.40;99.90;;;;;;5095857;28;20035;-73
2023/10/01 01:58:26;;;;;;;1999.90;999.90;;;9.50;99.90;;;;;;5094133;28;20052;-73
2023/10/01 02:01:35;;;;;;;1999.90;999.90;;;9.50;99.90;;;;;;5094427;28;20082;-73
2023/10/01 02:03:46;;;;;;;1999.90;999.90;;;9.40;99.90;;;;;;5088792;28;20032;-73
2023/10/01 02:06:13;;;;;;;1999.90;999.90;;;9.40;99.90;;;;;;5095796;28;20501;-74
2023/10/01 02:08:50;;;;;;;1999.90;999.90;;;9.40;99.90;;;;;;5095819;28;20032;-73
2023/10/01 02:11:19;;;;;;;1999.90;999.90;;;9.30;99.90;;;;;;5095927;28;20040;-73
2023/10/01 02:13:50;;;;;;;1999.90;999.90;;;9.30;99.90;;;;;;5095773;28;20056;-73
2023/10/01 02:18:56;;;;;;;1999.90;999.90;;;9.40;99.90;;;;;;5092675;28;20504;-73
2023/10/01 02:21:43;;;;;;;1999.90;999.90;;;9.30;99.90;;;;;;5095508;28;20037;-73
2023/10/01 02:24:22;;;;;;;1999.90;999.90;;;9.20;99.90;;;;;;5094121;28;20067;-73
2023/10/01 02:26:52;;;;;;;1999.90;999.90;;;9.20;99.90;;;;;;5093930;28;20115;-73
2023/10/01 02:29:22;;;;;;;1999.90;999.90;;;9.20;99.90;;;;;;5095575;28;20068;-73
2023/10/01 02:31:48;;;;;;;1999.90;999.90;;;9.20;99.90;;;;;;5095310;28;20044;-74
2023/10/01 02:34:15;;;;;;;1999.90;999.90;;;9.10;99.90;;;;;;5095501;28;20075;-73
2023/10/01 02:36:45;;;;;;;1999.90;999.90;;;9.20;99.90;;;;;;5093701;28;20060;-73
2023/10/01 02:39:21;;;;;;;1999.90;999.90;;;9.10;99.90;;;;;;5094885;28;20027;-73
2023/10/01 02:44:38;;;;;;;1999.90;999.90;;;9.10;99.90;;;;;;5092118;28;20021;-73
2023/10/01 02:47:18;;;;;;;1999.90;999.90;;;9.20;99.90;;;;;;5095023;28;20028;-73
2023/10/01 02:49:54;;;;;;;1999.90;999.90;;;9.20;99.90;;;;;;5095209;28;20072;-73
2023/10/01 02:52:36;;;;;;;1999.90;999.90;;;9.20;99.90;;;;;;5093692;28;20294;-73
2023/10/01 02:55:16;;;;;;;1999.90;999.90;;;9.20;99.90;;;;;;5095319;28;20021;-73
2023/10/01 02:57:42;;;;;;;1999.90;999.90;;;9.20;99.90;;;;;;5094923;28;20390;-73
2023/10/01 03:02:50;;;;;;;1999.90;999.90;;;9.20;99.90;;;;;;5091984;28;20036;-73
2023/10/01 03:05:18;;;;;;;1999.90;999.90;;;9.20;99.90;;;;;;5095110;28;20107;-73
2023/10/01 03:07:50;;;;;;;1999.90;999.90;;;9.20;99.90;;;;;;5094638;28;20127;-73
2023/10/01 03:10:25;;;;;;;1999.90;999.90;;;9.20;99.90;;;;;;5094747;28;20024;-74
2023/10/01 03:12:55;;;;;;;1999.90;999.90;;;9.20;99.90;;;;;;5094824;28;20110;-74
2023/10/01 03:15:24;;;;;;;1999.90;999.90;;;9.20;99.90;;;;;;5093868;28;20486;-73
2023/10/01 03:17:57;;;;;;;1999.90;999.90;;;9.20;99.90;;;;;;5094614;28;20551;-73
2023/10/01 03:28:32;;;;;;;1999.90;999.90;;;9.10;99.90;;;;;;5091654;28;20032;-73
2023/10/01 03:31:06;;;;;;;1999.90;999.90;;;9.10;99.90;;;;;;5094791;28;20550;-74
2023/10/01 03:33:39;;;;;;;1999.90;999.90;;;9.20;99.90;;;;;;5094813;28;20445;-73
2023/10/01 03:36:11;;;;;;;1999.90;999.90;;;9.20;99.90;;;;;;5094198;28;20044;-73
2023/10/01 03:38:44;;;;;;;1999.90;999.90;;;9.20;99.90;;;;;;5092775;28;20036;-72
2023/10/01 03:41:23;;;;;;;1999.90;999.90;;;9.20;99.90;;;;;;5094727;28;20037;-73
2023/10/01 03:44:08;;;;;;;1999.90;999.90;;;9.20;99.90;;;;;;5094685;28;20032;-74
2023/10/01 03:46:42;;;;;;;1999.90;999.90;;;9.20;99.90;;;;;;5094455;28;20033;-73
2023/10/01 03:51:53;;;;;;;1999.90;999.90;;;9.20;99.90;;;;;;5094703;28;20037;-72
2023/10/01 03:54:20;;;;;;;1999.90;999.90;;;9.20;99.90;;;;;;5094495;28;20032;-73
2023/10/01 03:56:58;;;;;;;1999.90;999.90;;;9.20;99.90;;;;;;5093793;28;20036;-73
2023/10/01 03:59:28;;;;;;;1999.90;999.90;;;9.10;99.90;;;;;;5092748;28;20036;-74
2023/10/01 04:05:01;;;;;;;1999.90;999.90;;;9.10;99.90;;;;;;5073371;28;20041;-74
2023/10/01 04:07:45;;;;;;;1999.90;999.90;;;9.00;99.90;;;;;;5094111;28;20059;-73
2023/10/01 04:10:13;;;;;;;1999.90;999.90;;;9.00;99.90;;;;;;5094014;28;20028;-73
2023/10/01 04:12:44;;;;;;;1999.90;999.90;;;9.00;99.90;;;;;;5094063;28;20037;-73
2023/10/01 04:15:22;;;;;;;1999.90;999.90;;;9.00;99.90;;;;;;5094141;28;20037;-73
2023/10/01 04:18:09;;;;;;;1999.90;999.90;;;8.90;99.90;;;;;;5094025;28;20400;-73
2023/10/01 04:20:33;;;;;;;1999.90;999.90;;;8.90;99.90;;;;;;5078173;22;20522;-75
2023/10/01 04:23:04;;;;;;;1999.90;999.90;;;8.90;99.90;;;;;;5053736;28;20038;-75
2023/10/01 04:25:36;;;;;;;1999.90;999.90;;;8.80;99.90;;;;;;5054300;28;20116;-75
2023/10/01 04:28:05;;;;;;;1999.90;999.90;;;8.80;99.90;;;;;;5055268;28;20029;-74
2023/10/01 04:30:34;;;;;;;1999.90;999.90;;;8.80;99.90;;;;;;5056730;28;20104;-75
2023/10/01 04:33:18;;;;;;;1999.90;999.90;;;8.70;99.90;;;;;;5056592;28;20093;-75
2023/10/01 04:35:51;;;;;;;1999.90;999.90;;;8.80;99.90;;;;;;5056754;28;20065;-76
2023/10/01 04:38:18;;;;;;;1999.90;999.90;;;8.80;99.90;;;;;;5055433;28;20044;-75
2023/10/01 04:40:46;;;;;;;1999.90;999.90;;;8.80;99.90;;;;;;5054977;28;20489;-75
2023/10/01 04:43:15;;;;;;;1999.90;999.90;;;8.80;99.90;;;;;;5056251;28;20033;-75
2023/10/01 04:45:44;;;;;;;1999.90;999.90;;;8.80;99.90;;;;;;5056371;28;20558;-75
2023/10/01 04:48:16;;;;;;;1999.90;999.90;;;8.80;99.90;;;;;;5055188;28;20479;-75
2023/10/01 04:50:43;;;;;;;1999.90;999.90;;;8.80;99.90;;;;;;5056598;28;20096;-75
2023/10/01 04:53:13;;;;;;;1999.90;999.90;;;8.80;99.90;;;;;;5056595;28;20073;-75
2023/10/01 04:55:42;;;;;;;1999.90;999.90;;;8.70;99.90;;;;;;5054879;28;20042;-76
2023/10/01 04:58:14;;;;;;;1999.90;999.90;;;8.70;99.90;;;;;;5054939;28;20037;-76
2023/10/01 05:00:47;;;;;;;1999.90;999.90;;;8.70;99.90;;;;;;5056181;28;20033;-75
2023/10/01 05:03:15;;;;;;;1999.90;999.90;;;8.70;99.90;;;;;;5056390;28;20104;-74
2023/10/01 05:05:45;;;;;;;1999.90;999.90;;;8.60;99.90;;;;;;5056054;28;20095;-74
2023/10/01 05:08:13;;;;;;;1999.90;999.90;;;8.50;99.90;;;;;;5056099;28;20029;-75
2023/10/01 05:10:52;;;;;;;1999.90;999.90;;;8.50;99.90;;;;;;5054308;28;20064;-75
2023/10/01 05:13:22;;;;;;;1999.90;999.90;;;8.50;99.90;;;;;;5054556;28;20045;-75
2023/10/01 05:15:58;;;;;;;1999.90;999.90;;;8.50;99.90;;;;;;5054494;28;20037;-75
2023/10/01 05:18:27;;;;;;;1999.90;999.90;;;8.40;99.90;;;;;;5056339;28;20040;-74
2023/10/01 05:20:58;;;;;;;1999.90;999.90;;;8.40;99.90;;;;;;5055784;28;20116;-75
2023/10/01 05:23:27;;;;;;;1999.90;999.90;;;8.40;99.90;;;;;;5054630;28;20056;-75
2023/10/01 05:25:53;;;;;;;1999.90;999.90;;;8.40;99.90;;;;;;5055779;28;20120;-75
2023/10/01 05:28:31;;;;;;;1999.90;999.90;;;8.40;99.90;;;;;;5054259;28;20475;-75
2023/10/01 05:31:12;;;;;;;1999.90;999.90;;;8.40;99.90;;;;;;5055825;28;20037;-75
2023/10/01 05:33:39;;;;;;;1999.90;999.90;;;8.40;99.90;;;;;;5056217;28;20036;-74
2023/10/01 05:36:05;;;;;;;1999.90;999.90;;;8.50;99.90;;;;;;5054078;28;20144;-74
2023/10/01 05:38:34;;;;;;;1999.90;999.90;;;8.60;99.90;;;;;;5055185;28;20056;-74
2023/10/01 05:41:04;;;;;;;1999.90;999.90;;;8.60;99.90;;;;;;5055660;28;20056;-75
2023/10/01 05:43:37;;;;;;;1999.90;999.90;;;8.60;99.90;;;;;;5053545;28;20034;-75
2023/10/01 05:46:09;;;;;;;1999.90;999.90;;;8.70;99.90;;;;;;5052357;28;20037;-74
2023/10/01 05:48:41;;;;;;;1999.90;999.90;;;8.60;99.90;;;;;;5055674;28;20041;-74
2023/10/01 05:51:12;;;;;;;1999.90;999.90;;;8.70;99.90;;;;;;5054649;28;20029;-75
2023/10/01 05:53:40;;;;;;;1999.90;999.90;;;8.80;99.90;;;;;;5055630;28;20026;-75
2023/10/01 05:56:07;;;;;;;1999.90;999.90;;;8.90;99.90;;;;;;5053731;28;20037;-75
2023/10/01 05:58:34;;;;;;;1999.90;999.90;;;8.80;99.90;;;;;;5055535;28;20029;-75
2023/10/01 06:01:05;;;;;;;1999.90;999.90;;;8.90;99.90;;;;;;5050662;28;20107;-75
2023/10/01 06:03:33;;;;;;;1999.90;999.90;;;9.00;99.90;;;;;;5053951;28;20125;-75
2023/10/01 06:05:59;;;;;;;1999.90;999.90;;;9.00;99.90;;;;;;5055127;28;20886;-75
2023/10/01 06:08:45;;;;;;;1999.90;999.90;;;9.10;99.90;;;;;;5055281;28;20029;-74
2023/10/01 06:11:13;;;;;;;1999.90;999.90;;;9.10;99.90;;;;;;5053673;28;20115;-74
2023/10/01 06:13:49;;;;;;;1999.90;999.90;;;9.20;99.90;;;;;;5055279;28;20021;-75
2023/10/01 06:16:22;;;;;;;1999.90;999.90;;;9.30;99.90;;;;;;5053670;28;20120;-74
2023/10/01 06:18:52;;;;;;;1999.90;999.90;;;9.30;99.90;;;;;;5054050;28;20167;-74
2023/10/01 06:21:25;;;;;;;1999.90;999.90;;;9.30;99.90;;;;;;5055245;28;20037;-74
2023/10/01 06:23:51;;;;;;;1999.90;999.90;;;9.30;99.90;;;;;;5055317;28;20040;-75
2023/10/01 06:26:37;;;;;;;1999.90;999.90;;;9.30;99.90;;;;;;5054827;28;20038;-75
2023/10/01 06:29:11;;;;;;;1999.90;999.90;;;9.30;99.90;;;;;;5054927;28;20112;-75
2023/10/01 06:32:00;;;;;;;1999.90;999.90;;;9.40;99.90;;;;;;5055000;28;20171;-75
2023/10/01 06:34:31;;;;;;;1999.90;999.90;;;9.40;99.90;;;;;;5055115;28;20096;-77
2023/10/01 06:36:59;;;;;;;1999.90;999.90;;;9.40;99.90;;;;;;5054830;28;20041;-75
2023/10/01 06:39:26;;;;;;;1999.90;999.90;;;9.40;99.90;;;;;;5053382;28;20033;-77
2023/10/01 06:41:52;;;;;;;1999.90;999.90;;;9.50;99.90;;;;;;5053523;28;20131;-77
2023/10/01 06:44:22;;;;;;;1999.90;999.90;;;9.50;99.90;;;;;;5054938;28;20428;-81
2023/10/01 06:46:48;;;;;;;1999.90;999.90;;;9.60;99.90;;;;;;5054746;28;20033;-79
2023/10/01 06:49:18;;;;;;;1999.90;999.90;;;9.50;99.90;;;;;;5051861;28;20021;-79
2023/10/01 06:51:45;;;;;;;1999.90;999.90;;;9.60;99.90;;;;;;5054393;28;20033;-78
2023/10/01 06:54:11;;;;;;;1999.90;999.90;;;9.60;99.90;;;;;;5054552;28;20026;-79
2023/10/01 06:56:43;;;;;;;1999.90;999.90;;;9.70;99.90;;;;;;5052979;28;20037;-78
2023/10/01 07:01:48;;;;;;;1999.90;999.90;;;9.80;99.90;;;;;;5045854;28;20037;-76
2023/10/01 07:04:23;;;;;;;1999.90;999.90;;;9.90;99.90;;;;;;5053669;28;20083;-77
2023/10/01 07:06:50;;;;;;;1999.90;999.90;;;10.00;99.90;;;;;;5054904;28;20036;-82
2023/10/01 07:09:34;;;;;;;1999.90;999.90;;;10.10;99.90;;;;;;5053719;28;20036;-80
2023/10/01 07:12:01;;;;;;;1999.90;999.90;;;10.20;99.90;;;;;;5055061;28;20060;-80
2023/10/01 07:14:43;;;;;;;1999.90;999.90;;;10.30;99.90;;;;;;5053234;28;20029;-79
2023/10/01 07:17:13;;;;;;;1999.90;999.90;;;10.40;99.90;;;;;;5055055;28;20873;-83
2023/10/01 07:19:40;;;;;;;1999.90;999.90;;;10.50;99.90;;;;;;5052974;28;20125;-80
2023/10/01 07:22:06;;;;;;;1999.90;999.90;;;10.60;99.90;;;;;;5052921;28;20061;-80
2023/10/01 07:24:33;;;;;;;1999.90;999.90;;;10.70;99.90;;;;;;5054623;28;20115;-81
2023/10/01 07:27:03;;;;;;;1999.90;999.90;;;10.80;99.90;;;;;;5043541;28;20041;-81
2023/10/01 07:29:39;;;;;;;1999.90;999.90;;;11.00;99.90;;;;;;5034494;28;20030;-83
2023/10/01 07:32:11;;;;;;;1999.90;999.90;;;10.90;99.90;;;;;;5032805;28;20518;-81
2023/10/01 07:34:42;;;;;;;1999.90;999.90;;;11.00;99.90;;;;;;5033845;28;20034;-83
2023/10/01 07:37:23;;;;;;;1999.90;999.90;;;11.10;99.90;;;;;;5033317;28;20038;-80
2023/10/01 07:39:52;;;;;;;1999.90;999.90;;;11.30;99.90;;;;;;5035692;28;20116;-81
2023/10/01 07:42:17;;;;;;;1999.90;999.90;;;11.30;99.90;;;;;;5033081;28;20030;-78
2023/10/01 07:44:45;;;;;;;1999.90;999.90;;;11.40;99.90;;;;;;5034872;28;20480;-80
2023/10/01 07:47:28;;;;;;;1999.90;999.90;;;11.50;99.90;;;;;;5033495;28;20041;-79
2023/10/01 07:49:56;;;;;;;1999.90;999.90;;;11.60;99.90;;;;;;5034964;28;20060;-78
2023/10/01 07:52:23;;;;;;;1999.90;999.90;;;11.70;99.90;;;;;;5034332;28;20549;-78
2023/10/01 07:54:49;;;;;;;1999.90;999.90;;;11.90;99.90;;;;;;5034827;28;20030;-78
2023/10/01 07:57:16;;;;;;;1999.90;999.90;;;12.00;99.90;;;;;;5033892;28;20042;-77
2023/10/01 07:59:43;;;;;;;1999.90;999.90;;;12.10;99.90;;;;;;5034610;28;20421;-80
2023/10/01 08:02:13;;;;;;;1999.90;999.90;;;12.30;99.90;;;;;;5037066;28;20022;-78
2023/10/01 08:07:15;;;;;;;1999.90;999.90;;;12.60;99.90;;;;;;5034822;28;20524;-80
2023/10/01 08:09:46;;;;;;;1999.90;999.90;;;12.70;99.90;;;;;;5036242;28;20038;-78
2023/10/01 08:12:13;;;;;;;1999.90;999.90;;;12.80;99.90;;;;;;5058487;28;20120;-78
2023/10/01 08:14:40;;;;;;;1999.90;999.90;;;13.00;99.90;;;;;;5058508;28;20025;-79
2023/10/01 08:17:07;;;;;;;1999.90;999.90;;;13.10;99.90;;;;;;5058110;28;20029;-79
2023/10/01 08:19:45;;;;;;;1999.90;999.90;;;13.20;99.90;;;;;;5056076;28;20031;-78
2023/10/01 08:22:41;;;;;;;1999.90;999.90;;;13.40;99.90;;;;;;5058456;28;20085;-78
2023/10/01 08:25:08;;;;;;;1999.90;999.90;;;13.50;99.90;;;;;;5056904;28;20026;-78
2023/10/01 08:27:34;;;;;;;1999.90;999.90;;;13.70;99.90;;;;;;5057234;28;20455;-78
2023/10/01 08:30:18;;;;;;;1999.90;999.90;;;13.80;99.90;;;;;;5056183;28;20053;-78
2023/10/01 08:32:53;;;;;;;1999.90;999.90;;;13.80;99.90;;;;;;5056160;28;20041;-78
2023/10/01 08:35:33;;;;;;;1999.90;999.90;;;14.10;99.90;;;;;;5057711;28;20030;-78
2023/10/01 08:37:59;;;;;;;1999.90;999.90;;;14.30;99.90;;;;;;5056132;28;20113;-79
2023/10/01 08:40:27;;;;;;;1999.90;999.90;;;14.50;99.90;;;;;;5055913;28;20122;-79
2023/10/01 08:42:57;;;;;;;1999.90;999.90;;;14.60;99.90;;;;;;5056524;28;20061;-79
2023/10/01 08:45:37;;;;;;;1999.90;999.90;;;14.70;99.90;;;;;;5058018;28;20473;-78
2023/10/01 08:48:06;;;;;;;1999.90;999.90;;;14.90;99.90;;;;;;5056277;28;20048;-78
2023/10/01 08:50:36;;;;;;;1999.90;999.90;;;15.00;99.90;;;;;;5056105;28;20113;-79
2023/10/01 08:53:09;;;;;;;1999.90;999.90;;;15.20;99.90;;;;;;5057779;28;20034;-78
2023/10/01 08:55:40;;;;;;;1999.90;999.90;;;15.30;99.90;;;;;;5058023;28;20112;-79
2023/10/01 08:58:48;;;;;;;1999.90;999.90;;;15.40;99.90;;;;;;5056701;28;20060;-78
2023/10/01 09:01:12;;;;;;;1999.90;999.90;;;15.40;99.90;;;;;;5054118;28;20545;-79
2023/10/01 09:03:39;;;;;;;1999.90;999.90;;;15.70;99.90;;;;;;5056332;28;20029;-79
2023/10/01 09:06:08;;;;;;;1999.90;999.90;;;15.90;99.90;;;;;;5056017;28;20573;-78
2023/10/01 09:08:43;;;;;;;1999.90;999.90;;;16.00;99.90;;;;;;5056206;28;20048;-79
2023/10/01 09:11:14;;;;;;;1999.90;999.90;;;16.20;99.90;;;;;;5057434;28;20033;-78
2023/10/01 09:13:51;;;;;;;1999.90;999.90;;;16.40;99.90;;;;;;5054859;28;20041;-79
2023/10/01 09:16:19;;;;;;;1999.90;999.90;;;16.50;99.90;;;;;;5055919;28;20033;-79
2023/10/01 09:19:03;;;;;;;1999.90;999.90;;;16.60;99.90;;;;;;5057486;28;20057;-79
2023/10/01 09:21:38;;;;;;;1999.90;999.90;;;16.70;99.90;;;;;;5058378;28;20111;-79
2023/10/01 09:24:33;;;;;;;1999.90;999.90;;;16.70;99.90;;;;;;5058129;28;20057;-79
2023/10/01 09:27:18;;;;;;;1999.90;999.90;;;16.90;99.90;;;;;;5058762;28;20025;-79
2023/10/01 09:29:45;;;;;;;1999.90;999.90;;;17.00;99.90;;;;;;5060200;28;20083;-79
2023/10/01 09:32:13;;;;;;;1999.90;999.90;;;17.10;99.90;;;;;;5060082;28;20025;-79
2023/10/01 09:34:53;;;;;;;1999.90;999.90;;;17.20;99.90;;;;;;5060172;28;20033;-78
2023/10/01 09:37:34;;;;;;;1999.90;999.90;;;17.20;99.90;;;;;;5058636;28;20033;-79
2023/10/01 09:40:32;;;;;;;1999.90;999.90;;;17.20;99.90;;;;;;5058375;28;20029;-78
2023/10/01 09:43:02;;;;;;;1999.90;999.90;;;17.30;99.90;;;;;;5060977;28;20502;-78
2023/10/01 09:45:37;;;;;;;1999.90;999.90;;;17.50;99.90;;;;;;5058384;28;20029;-79
2023/10/01 09:48:05;;;;;;;1999.90;999.90;;;17.60;99.90;;;;;;5060289;28;20036;-79
2023/10/01 09:50:44;;;;;;;1999.90;999.90;;;17.80;99.90;;;;;;5061124;28;20030;-78
2023/10/01 09:53:12;;;;;;;1999.90;999.90;;;17.90;99.90;;;;;;5060277;28;20120;-78
2023/10/01 09:55:47;;;;;;;1999.90;999.90;;;18.20;99.90;;;;;;5060571;28;20025;-78
2023/10/01 09:58:24;;;;;;;1999.90;999.90;;;18.20;99.90;;;;;;5058877;28;20065;-79
2023/10/01 10:01:08;;;;;;;1999.90;999.90;;;18.30;99.90;;;;;;5060354;28;20028;-79
2023/10/01 10:03:37;;;;;;;1999.90;999.90;;;18.40;99.90;;;;;;5058777;28;20037;-79
2023/10/01 10:06:06;;;;;;;1999.90;999.90;;;18.60;99.90;;;;;;5057964;28;20029;-79
2023/10/01 10:08:34;;;;;;;1999.90;999.90;;;18.70;99.90;;;;;;5057262;28;20073;-79
2023/10/01 10:11:02;;;;;;;1999.90;999.90;;;18.80;99.90;;;;;;5058637;28;20033;-79
2023/10/01 10:13:45;;;;;;;1999.90;999.90;;;18.80;99.90;;;;;;5058953;28;20030;-78
2023/10/01 10:16:31;;;;;;;1999.90;999.90;;;18.90;99.90;;;;;;5058704;28;20451;-79
2023/10/01 10:21:36;;;;;;;1999.90;999.90;;;19.20;99.90;;;;;;5052027;28;20060;-75
2023/10/01 10:24:02;;;;;;;1999.90;999.90;;;19.30;99.90;;;;;;5054693;28;20462;-76
2023/10/01 10:29:57;;;;;;;1999.90;999.90;;;19.70;99.90;;;;;;5032262;28;20033;-75
2023/10/01 10:32:26;;;;;;;1999.90;999.90;;;19.80;99.90;;;;;;5034476;28;20538;-77
2023/10/01 10:35:04;;;;;;;1999.90;999.90;;;19.90;99.90;;;;;;5050133;28;20065;-75
2023/10/01 10:37:45;;;;;;;1999.90;999.90;;;19.90;99.90;;;;;;5034837;28;20116;-76
2023/10/01 10:42:47;;;;;;;1999.90;999.90;;;20.20;99.90;;;;;;5032052;28;20061;-75
2023/10/01 10:45:22;;;;;;;1999.90;999.90;;;20.20;99.90;;;;;;5034797;28;20030;-76
2023/10/01 10:47:58;;;;;;;1999.90;999.90;;;20.20;99.90;;;;;;5050068;28;20046;-76
2023/10/01 10:50:50;;;;;;;1999.90;999.90;;;20.10;99.90;;;;;;5049593;28;20052;-77
2023/10/01 10:53:25;;;;;;;1999.90;999.90;;;20.30;99.90;;;;;;5034776;28;20507;-76
2023/10/01 10:55:55;;;;;;;1999.90;999.90;;;20.40;99.90;;;;;;5034547;28;20033;-75
2023/10/01 10:58:28;;;;;;;1999.90;999.90;;;20.50;99.90;;;;;;5034383;28;20115;-76
2023/10/01 11:00:55;;;;;;;1999.90;999.90;;;20.60;99.90;;;;;;5034360;28;20521;-76
2023/10/01 11:03:43;;;;;;;1999.90;999.90;;;20.80;99.90;;;;;;5034610;28;20113;-75
2023/10/01 11:06:43;;;;;;;1999.90;999.90;;;21.00;99.90;;;;;;5034507;28;20084;-76
2023/10/01 11:09:27;;;;;;;1999.90;999.90;;;21.00;99.90;;;;;;5034676;28;20232;-75
2023/10/01 11:12:01;;;;;;;1999.90;999.90;;;21.10;99.90;;;;;;5034634;28;20137;-76
2023/10/01 11:14:26;;;;;;;1999.90;999.90;;;21.30;99.90;;;;;;5034683;28;20034;-76
2023/10/01 11:16:52;;;;;;;1999.90;999.90;;;21.30;99.90;;;;;;5034225;28;20484;-76
2023/10/01 11:19:25;;;;;;;1999.90;999.90;;;21.20;99.90;;;;;;5034024;28;20033;-76
2023/10/01 11:21:58;;;;;;;1999.90;999.90;;;21.30;99.90;;;;;;5049651;28;20492;-76
2023/10/01 11:24:30;;;;;;;1999.90;999.90;;;21.30;99.90;;;;;;5034662;28;20030;-76
2023/10/01 11:27:15;;;;;;;1999.90;999.90;;;21.40;99.90;;;;;;5049454;28;20193;-76
2023/10/01 11:29:42;;;;;;;1999.90;999.90;;;21.60;99.90;;;;;;5034397;28;20116;-76
2023/10/01 11:32:07;;;;;;;1999.90;999.90;;;21.80;99.90;;;;;;5033707;28;20076;-76
2023/10/01 11:34:43;;;;;;;1999.90;999.90;;;21.80;99.90;;;;;;5034065;28;20462;-76
2023/10/01 11:37:18;;;;;;;1999.90;999.90;;;21.90;99.90;;;;;;5052323;28;20064;-76
2023/10/01 11:39:52;;;;;;;1999.90;999.90;;;22.10;99.90;;;;;;5037841;28;20040;-76
2023/10/01 11:42:38;;;;;;;1999.90;999.90;;;22.20;99.90;;;;;;5037840;28;20062;-77
2023/10/01 11:45:29;;;;;;;1999.90;999.90;;;22.20;99.90;;;;;;5037746;28;20084;-77
2023/10/01 11:48:05;;;;;;;1999.90;999.90;;;22.30;99.90;;;;;;5037637;28;20473;-76
2023/10/01 11:50:50;;;;;;;1999.90;999.90;;;22.30;99.90;;;;;;5052612;28;20034;-76
2023/10/01 11:53:16;;;;;;;1999.90;999.90;;;22.30;99.90;;;;;;5052691;28;20041;-76
2023/10/01 11:55:42;;;;;;;1999.90;999.90;;;22.20;99.90;;;;;;5037092;28;20076;-76
2023/10/01 11:58:15;;;;;;;1999.90;999.90;;;22.30;99.90;;;;;;5037453;28;20117;-76
2023/10/01 12:00:52;;;;;;;1999.90;999.90;;;22.50;99.90;;;;;;5037508;28;20034;-76
2023/10/01 12:03:18;;;;;;;1999.90;999.90;;;22.40;99.90;;;;;;5037189;28;20506;-76
2023/10/01 12:05:46;;;;;;;1999.90;999.90;;;22.40;99.90;;;;;;5037309;28;20064;-76
2023/10/01 12:08:18;;;;;;;1999.90;999.90;;;22.30;99.80;;;;;;5037163;28;20026;-76
2023/10/01 12:10:44;;;;;;;1999.90;999.90;;;22.40;99.90;;;;;;5052188;28;20040;-76
2023/10/01 12:13:12;;;;;;;1999.90;999.90;;;22.70;99.90;;;;;;5037382;28;20037;-76
2023/10/01 12:15:43;;;;;;;1999.90;999.90;;;22.70;99.30;;;;;;5037288;28;20038;-78
2023/10/01 12:18:13;;;;;;;1999.90;999.90;;;22.60;99.90;;;;;;5037378;28;20061;-76
2023/10/01 12:20:47;;;;;;;1999.90;999.90;;;22.80;99.30;;;;;;5051923;28;20034;-76
2023/10/01 12:23:14;;;;;;;1999.90;999.90;;;22.90;99.90;;;;;;5052122;28;20088;-77
2023/10/01 12:25:53;;;;;;;1999.90;999.90;;;23.20;98.80;;;;;;5037047;28;20057;-79
2023/10/01 12:28:27;;;;;;;1999.90;999.90;;;23.50;99.00;;;;;;5037243;28;20033;-77
2023/10/01 12:31:27;;;;;;;1999.90;999.90;;;23.90;98.10;;;;;;5036980;28;20095;-76
2023/10/01 12:33:46;;;;;;;1999.90;999.90;;;24.20;97.70;;;;;;5037514;28;20590;-76
2023/10/01 12:36:42;;;;;;;1999.90;999.90;;;24.20;95.80;;;;;;5036818;28;20036;-76
2023/10/01 12:41:47;;;;;;;1999.90;999.90;;;24.10;95.60;;;;;;5036888;28;20034;-76
2023/10/01 12:44:30;;;;;;;1999.90;999.90;;;24.10;94.70;;;;;;5036919;28;20503;-76
2023/10/01 12:47:02;;;;;;;1999.90;999.90;;;23.90;95.30;;;;;;5036386;28;20061;-76
2023/10/01 12:49:31;;;;;;;1999.90;999.90;;;24.00;94.80;;;;;;5036713;28;20037;-77
2023/10/01 12:51:57;;;;;;;1999.90;999.90;;;23.90;95.00;;;;;;5051886;28;20037;-76
2023/10/01 12:54:27;;;;;;;1999.90;999.90;;;23.80;95.50;;;;;;5036866;28;20037;-76
2023/10/01 12:59:38;;;;;;;1999.90;999.90;;;24.20;94.50;;;;;;5034163;28;20109;-77
2023/10/01 13:02:04;;;;;;;1999.90;999.90;;;24.20;94.00;;;;;;5051661;28;20034;-76
2023/10/01 13:04:32;;;;;;;1999.90;999.90;;;24.10;94.30;;;;;;5036755;28;20084;-76
2023/10/01 13:07:03;;;;;;;1999.90;999.90;;;24.10;94.00;;;;;;5036355;28;20451;-77
2023/10/01 13:12:17;;;;;;;1999.90;999.90;;;24.10;94.60;;;;;;5033334;28;20125;-76
2023/10/01 13:17:35;;;;;;;1999.90;999.90;;;24.50;94.10;;;;;;5036726;28;20126;-76